createdAt,value
2023-04-14T00:00:10.635Z,99490.00
2023-04-14T00:02:41.344Z,99495.00
2023-04-14T00:05:09.593Z,99494.00
2023-04-14T00:07:37.458Z,99502.00
2023-04-14T00:10:05.437Z,99513.00
2023-04-14T00:12:36.112Z,99515.00
2023-04-14T00:15:04.362Z,99514.00
2023-04-14T00:17:32.712Z,99514.00
2023-04-14T00:20:00.732Z,99515.00
2023-04-14T00:22:31.117Z,99514.00
2023-04-14T00:24:58.929Z,99521.00
2023-04-14T00:27:26.866Z,99519.00
2023-04-14T00:29:54.543Z,99519.00
2023-04-14T00:32:22.211Z,99516.00
2023-04-14T00:34:49.834Z,99520.00
2023-04-14T00:37:20.290Z,99509.00
2023-04-14T00:39:48.065Z,99507.00
2023-04-14T00:42:15.684Z,99499.00
2023-04-14T00:44:43.932Z,99509.00
2023-04-14T00:47:11.724Z,99503.00
2023-04-14T00:49:39.721Z,99500.00
2023-04-14T00:52:07.668Z,99504.00
2023-04-14T00:54:35.722Z,99510.00
2023-04-14T00:57:04.509Z,99509.00
2023-04-14T00:59:32.523Z,99511.00
2023-04-14T01:02:01.989Z,99508.00
2023-04-14T01:04:40.776Z,99509.00
2023-04-14T01:07:19.791Z,99512.00
2023-04-14T01:09:47.847Z,99503.00
2023-04-14T01:12:54.003Z,99513.00
2023-04-14T01:15:44.420Z,99512.00
2023-04-14T01:18:52.049Z,99518.00
2023-04-14T01:21:36.351Z,99512.00
2023-04-14T01:24:38.871Z,99519.00
2023-04-14T01:27:43.774Z,99517.00
2023-04-14T01:30:58.208Z,99507.00
2023-04-14T01:33:31.031Z,99509.00
2023-04-14T01:36:06.416Z,99515.00
2023-04-14T01:38:34.745Z,99515.00
2023-04-14T01:41:11.082Z,99514.00
2023-04-14T01:43:44.914Z,99510.00
2023-04-14T01:46:16.622Z,99511.00
2023-04-14T01:48:45.710Z,99512.00
2023-04-14T01:51:16.980Z,99515.00
2023-04-14T01:53:46.602Z,99514.00
2023-04-14T01:56:17.477Z,99520.00
2023-04-14T01:58:47.859Z,99521.00
2023-04-14T02:01:17.397Z,99518.00
2023-04-14T02:03:46.269Z,99514.00
2023-04-14T02:06:14.988Z,99520.00
2023-04-14T02:08:44.255Z,99515.00
2023-04-14T02:11:16.204Z,99516.00
2023-04-14T02:13:49.436Z,99517.00
2023-04-14T02:16:18.053Z,99519.00
2023-04-14T02:18:49.335Z,99513.00
2023-04-14T02:21:19.023Z,99514.00
2023-04-14T02:23:46.788Z,99511.00
2023-04-14T02:26:20.510Z,99512.00
2023-04-14T02:29:17.402Z,99517.00
2023-04-14T02:31:51.340Z,99511.00
2023-04-14T02:34:25.417Z,99515.00
2023-04-14T02:36:58.387Z,99518.00
2023-04-14T02:39:37.636Z,99519.00
2023-04-14T02:42:16.466Z,99522.00
2023-04-14T02:45:00.909Z,99524.00
2023-04-14T02:47:34.622Z,99532.00
2023-04-14T02:50:06.164Z,99534.00
2023-04-14T02:52:39.150Z,99527.00
2023-04-14T02:55:10.113Z,99533.00
2023-04-14T02:57:38.526Z,99533.00
2023-04-14T03:00:08.405Z,99528.00
2023-04-14T03:02:46.650Z,99527.00
2023-04-14T03:05:15.074Z,99532.00
2023-04-14T03:07:56.216Z,99533.00
2023-04-14T03:10:25.061Z,99532.00
2023-04-14T03:12:54.389Z,99540.00
2023-04-14T03:15:26.303Z,99534.00
2023-04-14T03:17:57.554Z,99539.00
2023-04-14T03:20:30.197Z,99539.00
2023-04-14T03:23:06.452Z,99543.00
2023-04-14T03:25:42.837Z,99536.00
2023-04-14T03:28:23.064Z,99536.00
2023-04-14T03:30:54.465Z,99529.00
2023-04-14T03:33:28.824Z,99521.00
2023-04-14T03:36:01.823Z,99523.00
2023-04-14T03:38:32.413Z,99520.00
2023-04-14T03:41:05.809Z,99517.00
2023-04-14T03:43:34.475Z,99524.00
2023-04-14T03:46:07.676Z,99526.00
2023-04-14T03:48:42.855Z,99520.00
2023-04-14T03:51:16.362Z,99516.00
2023-04-14T03:53:47.011Z,99519.00
2023-04-14T03:56:18.272Z,99523.00
2023-04-14T03:58:48.260Z,99516.00
2023-04-14T04:05:49.456Z,99523.00
2023-04-14T04:08:20.208Z,99521.00
2023-04-14T04:10:49.990Z,99526.00
2023-04-14T04:13:24.038Z,99525.00
2023-04-14T04:15:52.503Z,99528.00
2023-04-14T04:18:27.087Z,99527.00
2023-04-14T04:20:58.647Z,99531.00
2023-04-14T04:23:31.791Z,99532.00
2023-04-14T04:26:00.042Z,99521.00
2023-04-14T04:28:39.818Z,99536.00
2023-04-14T04:31:10.105Z,99534.00
2023-04-14T04:33:39.396Z,99538.00
2023-04-14T04:36:14.581Z,99535.00
2023-04-14T04:38:44.220Z,99538.00
2023-04-14T04:41:30.363Z,99551.00
2023-04-14T04:44:02.055Z,99545.00
2023-04-14T04:46:55.076Z,99544.00
2023-04-14T04:49:28.594Z,99547.00
2023-04-14T04:52:01.794Z,99555.00
2023-04-14T04:54:29.445Z,99553.00
2023-04-14T04:56:58.995Z,99549.00
2023-04-14T04:59:26.759Z,99549.00
2023-04-14T05:01:55.426Z,99554.00
2023-04-14T05:04:23.100Z,99548.00
2023-04-14T05:06:51.007Z,99561.00
2023-04-14T05:09:18.595Z,99554.00
2023-04-14T05:11:46.501Z,99554.00
2023-04-14T05:14:14.255Z,99544.00
2023-04-14T05:16:42.366Z,99547.00
2023-04-14T05:19:09.998Z,99549.00
2023-04-14T05:21:38.016Z,99545.00
2023-04-14T05:24:09.625Z,99541.00
2023-04-14T05:26:54.850Z,99546.00
2023-04-14T05:29:26.016Z,99545.00
2023-04-14T05:31:53.510Z,99539.00
2023-04-14T05:34:21.199Z,99552.00
2023-04-14T05:36:48.771Z,99549.00
2023-04-14T05:39:16.883Z,99557.00
2023-04-14T05:41:44.503Z,99555.00
2023-04-14T05:44:12.341Z,99556.00
2023-04-14T05:46:39.949Z,99562.00
2023-04-14T05:49:08.007Z,99563.00
2023-04-14T05:51:36.497Z,99555.00
2023-04-14T05:54:04.287Z,99557.00
2023-04-14T05:56:32.158Z,99561.00
2023-04-14T05:58:59.887Z,99566.00
2023-04-14T06:01:27.640Z,99557.00
2023-04-14T06:03:55.353Z,99557.00
2023-04-14T06:06:23.427Z,99563.00
2023-04-14T06:08:56.600Z,99556.00
2023-04-14T06:11:24.325Z,99564.00
2023-04-14T06:13:52.267Z,99561.00
2023-04-14T06:16:19.870Z,99553.00
2023-04-14T06:18:50.443Z,99555.00
2023-04-14T06:21:18.025Z,99551.00
2023-04-14T06:23:45.756Z,99554.00
2023-04-14T06:26:13.439Z,99555.00
2023-04-14T06:28:44.436Z,99550.00
2023-04-14T06:31:12.117Z,99545.00
2023-04-14T06:33:39.783Z,99547.00
2023-04-14T06:36:07.994Z,99540.00
2023-04-14T06:38:36.757Z,99543.00
2023-04-14T06:41:04.678Z,99541.00
2023-04-14T06:43:32.226Z,99544.00
2023-04-14T06:46:01.587Z,99539.00
2023-04-14T06:48:29.321Z,99540.00
2023-04-14T06:50:57.746Z,99541.00
2023-04-14T06:53:26.715Z,99535.00
2023-04-14T06:56:00.761Z,99540.00
2023-04-14T06:58:29.364Z,99540.00
2023-04-14T07:00:58.990Z,99547.00
2023-04-14T07:03:28.525Z,99543.00
2023-04-14T07:06:06.062Z,99542.00
2023-04-14T07:08:35.440Z,99547.00
2023-04-14T07:11:06.628Z,99549.00
2023-04-14T07:13:34.608Z,99545.00
2023-04-14T07:16:03.880Z,99545.00
2023-04-14T07:18:32.090Z,99548.00
2023-04-14T07:21:03.290Z,99552.00
2023-04-14T07:23:31.329Z,99540.00
2023-04-14T07:26:01.135Z,99545.00
2023-04-14T07:28:28.890Z,99544.00
2023-04-14T07:30:56.950Z,99547.00
2023-04-14T07:33:25.544Z,99556.00
2023-04-14T07:36:03.096Z,99555.00
2023-04-14T07:38:34.595Z,99545.00
2023-04-14T07:41:07.318Z,99555.00
2023-04-14T07:43:36.017Z,99563.00
2023-04-14T07:46:06.121Z,99553.00
2023-04-14T07:48:38.283Z,99560.00
2023-04-14T07:51:07.172Z,99553.00
2023-04-14T07:53:40.683Z,99557.00
2023-04-14T07:56:08.851Z,99557.00
2023-04-14T07:58:38.261Z,99564.00
2023-04-14T08:01:14.431Z,99553.00
2023-04-14T08:03:45.177Z,99565.00
2023-04-14T08:06:13.767Z,99556.00
2023-04-14T08:08:41.288Z,99560.00
2023-04-14T08:11:08.944Z,99549.00
2023-04-14T08:13:36.412Z,99556.00
2023-04-14T08:16:04.839Z,99540.00
2023-04-14T08:18:32.692Z,99554.00
2023-04-14T08:21:00.562Z,99562.00
2023-04-14T08:23:28.207Z,99560.00
2023-04-14T08:25:55.937Z,99555.00
2023-04-14T08:28:23.669Z,99564.00
2023-04-14T08:30:52.274Z,99567.00
2023-04-14T08:33:19.824Z,99571.00
2023-04-14T08:35:47.434Z,99566.00
2023-04-14T08:38:27.087Z,99570.00
2023-04-14T08:40:56.956Z,99575.00
2023-04-14T08:43:24.897Z,99573.00
2023-04-14T08:45:54.145Z,99580.00
2023-04-14T08:48:25.039Z,99578.00
2023-04-14T08:51:07.358Z,99570.00
2023-04-14T08:53:42.950Z,99569.00
2023-04-14T08:56:15.289Z,99563.00
2023-04-14T08:58:43.289Z,99555.00
2023-04-14T09:01:11.638Z,99561.00
2023-04-14T09:03:42.764Z,99556.00
2023-04-14T09:06:12.478Z,99560.00
2023-04-14T09:08:40.261Z,99544.00
2023-04-14T09:11:10.759Z,99542.00
2023-04-14T09:13:39.536Z,99539.00
2023-04-14T09:16:08.891Z,99543.00
2023-04-14T09:18:36.757Z,99540.00
2023-04-14T09:21:31.754Z,99541.00
2023-04-14T09:23:54.514Z,99540.00
2023-04-14T09:26:22.775Z,99536.00
2023-04-14T09:28:50.890Z,99532.00
2023-04-14T09:31:19.928Z,99530.00
2023-04-14T09:33:57.519Z,99540.00
2023-04-14T09:36:29.181Z,99535.00
2023-04-14T09:38:57.550Z,99544.00
2023-04-14T09:41:28.546Z,99539.00
2023-04-14T09:43:56.635Z,99541.00
2023-04-14T09:46:24.569Z,99540.00
2023-04-14T09:48:56.799Z,99538.00
2023-04-14T09:51:34.009Z,99546.00
2023-04-14T09:54:06.264Z,99541.00
2023-04-14T09:56:34.425Z,99540.00
2023-04-14T09:59:04.281Z,99552.00
2023-04-14T10:01:34.706Z,99550.00
2023-04-14T10:04:03.450Z,99556.00
2023-04-14T10:06:34.016Z,99547.00
2023-04-14T10:09:02.275Z,99541.00
2023-04-14T10:11:38.336Z,99552.00
2023-04-14T10:14:06.995Z,99554.00
2023-04-14T10:16:35.210Z,99548.00
2023-04-14T10:19:03.889Z,99548.00
2023-04-14T10:21:32.244Z,99543.00
2023-04-14T10:24:00.360Z,99540.00
2023-04-14T10:26:30.231Z,99542.00
2023-04-14T10:28:58.763Z,99533.00
2023-04-14T10:31:41.202Z,99533.00
2023-04-14T10:34:16.602Z,99529.00
2023-04-14T10:36:51.034Z,99533.00
2023-04-14T10:39:28.860Z,99524.00
2023-04-14T10:41:57.084Z,99531.00
2023-04-14T10:44:35.299Z,99528.00
2023-04-14T10:47:08.950Z,99522.00
2023-04-14T10:49:41.713Z,99530.00
2023-04-14T10:52:15.882Z,99518.00
2023-04-14T10:54:54.411Z,99531.00
2023-04-14T10:57:26.980Z,99519.00
2023-04-14T10:59:57.726Z,99517.00
2023-04-14T11:02:34.002Z,99512.00
2023-04-14T11:05:14.696Z,99512.00
2023-04-14T11:07:54.663Z,99519.00
2023-04-14T11:10:22.652Z,99530.00
2023-04-14T11:13:11.821Z,99522.00
2023-04-14T11:16:09.901Z,99517.00
2023-04-14T11:18:45.315Z,99519.00
2023-04-14T11:21:17.292Z,99522.00
2023-04-14T11:23:45.230Z,99521.00
2023-04-14T11:26:14.424Z,99518.00
2023-04-14T11:28:47.921Z,99521.00
2023-04-14T11:31:17.381Z,99512.00
2023-04-14T11:33:45.197Z,99505.00
2023-04-14T11:36:13.670Z,99510.00
2023-04-14T11:38:42.931Z,99515.00
2023-04-14T11:41:11.103Z,99520.00
2023-04-14T11:43:39.596Z,99513.00
2023-04-14T11:46:09.018Z,99516.00
2023-04-14T11:48:37.570Z,99521.00
2023-04-14T11:51:08.274Z,99517.00
2023-04-14T11:53:40.059Z,99520.00
2023-04-14T11:56:09.364Z,99514.00
2023-04-14T11:58:37.433Z,99504.00
2023-04-14T12:01:05.752Z,99503.00
2023-04-14T12:03:35.892Z,99503.00
2023-04-14T12:06:04.876Z,99496.00
2023-04-14T12:08:34.458Z,99504.00
2023-04-14T12:11:18.567Z,99498.00
2023-04-14T12:13:48.312Z,99494.00
2023-04-14T12:16:17.717Z,99493.00
2023-04-14T12:18:46.533Z,99493.00
2023-04-14T12:21:21.197Z,99492.00
2023-04-14T12:23:49.600Z,99486.00
2023-04-14T12:26:20.010Z,99472.00
2023-04-14T12:28:58.127Z,99468.00
2023-04-14T12:31:32.801Z,99463.00
2023-04-14T12:34:04.298Z,99464.00
2023-04-14T12:36:48.130Z,99464.00
2023-04-14T12:39:23.573Z,99469.00
2023-04-14T12:41:51.489Z,99468.00
2023-04-14T12:44:22.198Z,99459.00
2023-04-14T12:46:52.958Z,99452.00
2023-04-14T12:49:39.276Z,99458.00
2023-04-14T12:52:08.772Z,99446.00
2023-04-14T12:54:52.843Z,99454.00
2023-04-14T12:57:22.060Z,99447.00
2023-04-14T12:59:50.787Z,99443.00
2023-04-14T13:02:19.064Z,99439.00
2023-04-14T13:04:47.066Z,99427.00
2023-04-14T13:07:14.763Z,99422.00
2023-04-14T13:09:43.929Z,99439.00
2023-04-14T13:12:11.631Z,99442.00
2023-04-14T13:14:39.591Z,99446.00
2023-04-14T13:17:07.996Z,99439.00
2023-04-14T13:19:35.868Z,99438.00
2023-04-14T13:22:06.723Z,99433.00
2023-04-14T13:24:34.560Z,99428.00
2023-04-14T13:27:06.998Z,99423.00
2023-04-14T13:29:41.186Z,99436.00
2023-04-14T13:32:11.360Z,99433.00
2023-04-14T13:34:42.484Z,99429.00
2023-04-14T13:37:13.650Z,99429.00
2023-04-14T13:39:41.614Z,99424.00
2023-04-14T13:42:12.220Z,99418.00
2023-04-14T13:44:39.964Z,99415.00
2023-04-14T13:47:08.357Z,99415.00
2023-04-14T13:49:35.948Z,99415.00
2023-04-14T13:52:04.356Z,99411.00
2023-04-14T13:54:32.148Z,99411.00
2023-04-14T13:57:01.134Z,99408.00
2023-04-14T13:59:31.514Z,99398.00
2023-04-14T14:01:59.943Z,99410.00
2023-04-14T14:04:27.992Z,99404.00
2023-04-14T14:06:58.406Z,99403.00
2023-04-14T14:09:26.195Z,99401.00
2023-04-14T14:11:53.826Z,99402.00
2023-04-14T14:14:22.061Z,99397.00
2023-04-14T14:16:49.990Z,99407.00
2023-04-14T14:19:18.513Z,99407.00
2023-04-14T14:21:46.579Z,99400.00
2023-04-14T14:24:15.066Z,99399.00
2023-04-14T14:26:42.884Z,99405.00
2023-04-14T14:29:11.077Z,99399.00
2023-04-14T14:31:39.011Z,99393.00
2023-04-14T14:34:07.627Z,99401.00
2023-04-14T14:36:36.980Z,99394.00
2023-04-14T14:39:05.162Z,99392.00
2023-04-14T14:41:32.932Z,99395.00
2023-04-14T14:44:01.561Z,99387.00
2023-04-14T14:46:30.289Z,99388.00
2023-04-14T14:48:58.734Z,99396.00
2023-04-14T14:51:28.229Z,99391.00
2023-04-14T14:54:08.954Z,99390.00
2023-04-14T14:56:37.375Z,99388.00
2023-04-14T14:59:10.001Z,99392.00
2023-04-14T15:01:39.413Z,99391.00
2023-04-14T15:04:09.677Z,99391.00
2023-04-14T15:06:38.353Z,99384.00
2023-04-14T15:09:08.833Z,99383.00
2023-04-14T15:11:36.666Z,99381.00
2023-04-14T15:14:05.348Z,99377.00
2023-04-14T15:16:33.760Z,99382.00
2023-04-14T15:19:02.030Z,99384.00
2023-04-14T15:21:33.081Z,99382.00
2023-04-14T15:24:02.241Z,99387.00
2023-04-14T15:26:30.234Z,99382.00
2023-04-14T15:28:57.990Z,99385.00
2023-04-14T15:31:28.947Z,99375.00
2023-04-14T15:34:00.942Z,99380.00
2023-04-14T15:36:29.438Z,99378.00
2023-04-14T15:39:00.576Z,99387.00
2023-04-14T15:41:29.412Z,99384.00
2023-04-14T15:43:57.449Z,99383.00
2023-04-14T15:46:25.385Z,99394.00
2023-04-14T15:48:53.200Z,99382.00
2023-04-14T15:51:20.780Z,99378.00
2023-04-14T15:53:49.151Z,99381.00
2023-04-14T15:56:16.672Z,99381.00
2023-04-14T15:58:44.190Z,99387.00
2023-04-14T16:01:12.647Z,99378.00
2023-04-14T16:03:40.571Z,99380.00
2023-04-14T16:06:10.763Z,99379.00
2023-04-14T16:08:38.306Z,99377.00
2023-04-14T16:11:16.805Z,99384.00
2023-04-14T16:13:45.803Z,99377.00
2023-04-14T16:16:15.630Z,99376.00
2023-04-14T16:18:43.483Z,99378.00
2023-04-14T16:21:11.522Z,99388.00
2023-04-14T16:23:39.281Z,99389.00
2023-04-14T16:26:06.854Z,99387.00
2023-04-14T16:28:35.374Z,99380.00
2023-04-14T16:31:03.865Z,99380.00
2023-04-14T16:33:34.484Z,99380.00
2023-04-14T16:36:09.222Z,99387.00
2023-04-14T16:38:36.877Z,99384.00
2023-04-14T16:41:04.633Z,99390.00
2023-04-14T16:43:33.021Z,99392.00
2023-04-14T16:46:04.949Z,99398.00
2023-04-14T16:48:33.528Z,99392.00
2023-04-14T16:51:09.755Z,99398.00
2023-04-14T16:53:40.933Z,99396.00
2023-04-14T16:56:10.273Z,99404.00
2023-04-14T16:58:40.216Z,99408.00
2023-04-14T17:01:10.638Z,99406.00
2023-04-14T17:03:39.661Z,99405.00
2023-04-14T17:06:07.625Z,99407.00
2023-04-14T17:08:35.457Z,99404.00
2023-04-14T17:11:03.672Z,99406.00
2023-04-14T17:13:31.277Z,99406.00
2023-04-14T17:16:08.279Z,99410.00
2023-04-14T17:18:37.351Z,99414.00
2023-04-14T17:21:06.578Z,99412.00
2023-04-14T17:23:38.251Z,99413.00
2023-04-14T17:26:06.103Z,99416.00
2023-04-14T17:28:37.441Z,99418.00
2023-04-14T17:31:15.774Z,99421.00
2023-04-14T17:33:47.594Z,99425.00
2023-04-14T17:36:16.792Z,99421.00
2023-04-14T17:38:44.912Z,99421.00
2023-04-14T17:41:14.894Z,99427.00
2023-04-14T17:43:46.771Z,99431.00
2023-04-14T17:46:15.428Z,99435.00
2023-04-14T17:48:43.075Z,99432.00
2023-04-14T17:51:11.776Z,99435.00
2023-04-14T17:53:39.308Z,99439.00
2023-04-14T17:56:11.343Z,99446.00
2023-04-14T17:58:38.805Z,99440.00
2023-04-14T18:01:06.405Z,99442.00
2023-04-14T18:03:36.647Z,99432.00
2023-04-14T18:06:04.602Z,99443.00
2023-04-14T18:08:34.990Z,99449.00
2023-04-14T18:11:02.476Z,99451.00
2023-04-14T18:13:33.713Z,99453.00
2023-04-14T18:16:02.093Z,99460.00
2023-04-14T18:18:32.012Z,99464.00
2023-04-14T18:20:59.365Z,99469.00
2023-04-14T18:23:26.929Z,99470.00
2023-04-14T18:28:33.419Z,99465.00
2023-04-14T18:31:01.809Z,99467.00
2023-04-14T18:33:30.000Z,99480.00
2023-04-14T18:36:00.769Z,99475.00
2023-04-14T18:38:28.956Z,99472.00
2023-04-14T18:41:05.571Z,99464.00
2023-04-14T18:43:34.094Z,99468.00
2023-04-14T18:46:02.844Z,99465.00
2023-04-14T18:48:31.065Z,99467.00
2023-04-14T18:51:02.657Z,99477.00
2023-04-14T18:53:30.443Z,99480.00
2023-04-14T18:56:00.722Z,99477.00
2023-04-14T18:58:30.612Z,99474.00
2023-04-14T19:00:58.585Z,99476.00
2023-04-14T19:03:27.530Z,99482.00
2023-04-14T19:05:55.688Z,99485.00
2023-04-14T19:08:23.248Z,99485.00
2023-04-14T19:10:51.997Z,99492.00
2023-04-14T19:13:19.896Z,99483.00
2023-04-14T19:15:47.525Z,99488.00
2023-04-14T19:18:17.122Z,99488.00
2023-04-14T19:20:47.557Z,99488.00
2023-04-14T19:23:15.446Z,99493.00
2023-04-14T19:25:43.139Z,99484.00
2023-04-14T19:28:16.751Z,99486.00
2023-04-14T19:30:46.088Z,99486.00
2023-04-14T19:33:14.232Z,99478.00
2023-04-14T19:35:44.450Z,99483.00
2023-04-14T19:38:12.560Z,99478.00
2023-04-14T19:40:49.034Z,99478.00
2023-04-14T19:43:20.805Z,99479.00
2023-04-14T19:45:57.301Z,99474.00
2023-04-14T19:48:25.644Z,99478.00
2023-04-14T19:50:56.842Z,99472.00
2023-04-14T19:53:24.929Z,99472.00
2023-04-14T19:55:56.108Z,99473.00
2023-04-14T19:58:31.443Z,99467.00
2023-04-14T20:01:01.138Z,99471.00
2023-04-14T20:03:29.174Z,99468.00
2023-04-14T20:05:58.228Z,99464.00
2023-04-14T20:08:30.765Z,99467.00
2023-04-14T20:10:59.089Z,99464.00
2023-04-14T20:13:30.720Z,99467.00
2023-04-14T20:15:59.093Z,99460.00
2023-04-14T20:18:28.163Z,99462.00
2023-04-14T20:20:56.890Z,99453.00
2023-04-14T20:23:24.573Z,99457.00
2023-04-14T20:25:53.325Z,99452.00
2023-04-14T20:28:23.298Z,99455.00
2023-04-14T20:30:54.812Z,99462.00
2023-04-14T20:33:23.316Z,99447.00
2023-04-14T20:35:53.689Z,99456.00
2023-04-14T20:38:22.683Z,99466.00
2023-04-14T20:40:50.405Z,99465.00
2023-04-14T20:43:24.850Z,99466.00
2023-04-14T20:45:53.477Z,99468.00
2023-04-14T20:48:21.320Z,99464.00
2023-04-14T20:50:50.367Z,99461.00
2023-04-14T20:53:19.461Z,99464.00
2023-04-14T20:55:47.074Z,99463.00
2023-04-14T20:58:14.922Z,99459.00
2023-04-14T21:00:43.602Z,99455.00
2023-04-14T21:03:12.032Z,99451.00
2023-04-14T21:05:42.721Z,99453.00
2023-04-14T21:08:10.299Z,99457.00
2023-04-14T21:11:02.177Z,99454.00
2023-04-14T21:15:29.719Z,99452.00
2023-04-14T21:16:19.455Z,99451.00
2023-04-14T21:18:47.521Z,99446.00
2023-04-14T21:21:15.639Z,99455.00
2023-04-14T21:23:45.126Z,99447.00
2023-04-14T21:26:13.652Z,99444.00
2023-04-14T21:28:42.100Z,99451.00
2023-04-14T21:31:10.692Z,99447.00
2023-04-14T21:33:40.290Z,99449.00
2023-04-14T21:36:11.136Z,99461.00
2023-04-14T21:38:39.639Z,99453.00
2023-04-14T21:41:09.016Z,99455.00
2023-04-14T21:43:41.035Z,99458.00
2023-04-14T21:46:09.025Z,99449.00
2023-04-14T21:48:36.904Z,99447.00
2023-04-14T21:51:05.391Z,99456.00
2023-04-14T21:53:33.548Z,99452.00
2023-04-14T21:56:09.300Z,99442.00
2023-04-14T21:58:42.316Z,99435.00
2023-04-14T22:01:10.493Z,99439.00
2023-04-14T22:03:41.167Z,99435.00
2023-04-14T22:06:11.548Z,99434.00
2023-04-14T22:08:41.146Z,99429.00
2023-04-14T22:11:09.174Z,99420.00
2023-04-14T22:13:37.108Z,99417.00
2023-04-14T22:16:05.560Z,99422.00
2023-04-14T22:18:33.197Z,99422.00
2023-04-14T22:21:00.846Z,99427.00
2023-04-14T22:23:28.755Z,99430.00
2023-04-14T22:25:57.120Z,99426.00
2023-04-14T22:28:24.763Z,99422.00
2023-04-14T22:30:52.471Z,99425.00
2023-04-14T22:33:20.298Z,99429.00
2023-04-14T22:35:48.164Z,99430.00
2023-04-14T22:38:15.927Z,99429.00
2023-04-14T22:40:43.725Z,99423.00
2023-04-14T22:43:11.328Z,99418.00
2023-04-14T22:45:40.256Z,99422.00
2023-04-14T22:48:11.912Z,99418.00
2023-04-14T22:50:40.130Z,99417.00
2023-04-14T22:53:07.861Z,99418.00
2023-04-14T22:55:35.498Z,99418.00
2023-04-14T22:58:03.358Z,99413.00
2023-04-14T23:00:31.814Z,99419.00
2023-04-14T23:02:59.980Z,99419.00
2023-04-14T23:05:28.268Z,99420.00
2023-04-14T23:07:59.100Z,99419.00
2023-04-14T23:10:26.775Z,99412.00
2023-04-14T23:12:58.695Z,99408.00
2023-04-14T23:15:26.604Z,99405.00
2023-04-14T23:17:54.346Z,99402.00
2023-04-14T23:20:23.575Z,99402.00
2023-04-14T23:22:51.737Z,99403.00
2023-04-14T23:25:19.604Z,99405.00
2023-04-14T23:27:50.146Z,99399.00
2023-04-14T23:30:18.310Z,99408.00
2023-04-14T23:32:46.765Z,99405.00
2023-04-14T23:35:14.903Z,99401.00
2023-04-14T23:37:42.608Z,99399.00
2023-04-14T23:40:11.372Z,99405.00
2023-04-14T23:42:38.914Z,99407.00
2023-04-14T23:45:08.340Z,99399.00
2023-04-14T23:47:36.746Z,99401.00
2023-04-14T23:50:05.203Z,99396.00
2023-04-14T23:52:36.280Z,99400.00
2023-04-14T23:55:07.374Z,99389.00
2023-04-14T23:57:35.069Z,99392.00
